Terminal Aerodrome Forecast
Issued by NWS

Home | Current Version | Previous Version | Text Only | Print | Product List | Glossary On
Versions: 1 2 3 4 5 6 7 8 9 10 11 12 13
108
FTUS42 KTBW 251406 AAA
TAFLAL
TAF AMD
KLAL 251406Z 2514/2612 10010KT P6SM FEW030
     FM251600 08011G16KT P6SM SCT050
     FM260100 10009KT P6SM SCT060
     FM260500 05004KT P6SM SKC=

USA.gov is the U.S. government's official web portal to all federal, state and local government web resources and services.